Sedalia Memorial, MO

8:33 AM CST on November 23, 2014 (GMT -0600)
Skyhaven | Change Station
CLOSE
Current Station
Airport
Location: Warrensburg,
Elevation: 797 ft
Nearby Weather Stations

Elev 797 ft 38.78 °N, 93.80 °W | Updated 18 minutes ago

Overcast
Overcast
54 °F
Feels Like 54 °F
N
13
Wind Variable Wind from SE
Gusts 17 mph

Today
High -- | Low -- °F
--% Chance of Precip.
Yesterday
High -- | Low -- °F
Precip. -- in
7:03 AM 4:54 PM
New Moon, 1% visible
Pressure 29.53 in
Visibility 10.0 miles
Clouds Mostly Cloudy 900 ft
Overcast 1400 ft
Dew Point 52 °F
Humidity 94%
Rainfall 0.06 in
Snow Depth Not available.
UV 0 out of 12
Pollen .30 out of 12
Air Quality Not available.
Flu Activity Not available.
METAR KRCM 231415Z AUTO 14011G15KT 10SM BKN009 OVC014 12/11 A2953 RMK AO2

More Conditions Fewer Conditions

Pressure 29.53 in
Visibility 10.0 miles
Clouds Mostly Cloudy 900 ft
Overcast 1400 ft
Dew Point 52 °F
Humidity 94%
Rainfall 0.06 in
Snow Depth Not available.
UV 0 out of 12
Pollen .30 out of 12
Air Quality Not available.
Flu Activity Not available.
METAR KRCM 231415Z AUTO 14011G15KT 10SM BKN009 OVC014 12/11 A2953 RMK AO2

More Conditions Fewer Conditions

10-Day Weather Forecast

Almanac

Astronomy

Nov. 23, 2014 Rise Set
Actual Time
Civil Twilight
Nautical Twilight
Astronomical Twilight
Moon
Length of Visible Light
Length of Day
Tomorrow will be .
, % of the Moon is Illuminated

Today's Extremes

State Highs State Lows

Community

WunderPhotos

Upload Photos

1,773,077 photos uploaded!

WunderBlogs® & News

Nearby

Air Quality

  Air Quality AQ Index Pollutant
Not available.

Snow Depth

Station Depth Elevation

Earthquake Activity

City Distance Mag. Time & Date
Minimum magnitude displayed is 2.5.

Coastal Water Temperatures

Place Temperature

Nearby Weather Stations